Time;durP1;ratioP1;P1;durP2;ratioP2;P2;SDS_P1;SDS_P2;PMS_P1;PMS_P2;Temp;Humidity;BMP_temperature;BMP_pressure;BME280_temperature;BME280_humidity;BME280_pressure;Samples;Min_cycle;Max_cycle;Signal;HPM_P1;HPM_P2
2022/04/18 00:02:27;;;;;;;2.45;2.25;;;;;;;11.30;59.72;100255.09;5001122;28;20443;-65
2022/04/18 00:05:11;;;;;;;3.33;2.20;;;;;;;11.30;60.05;100260.28;5001800;28;20045;-65
2022/04/18 00:07:55;;;;;;;6.03;2.33;;;;;;;11.30;60.35;100255.09;5001419;28;20417;-65
2022/04/18 00:10:39;;;;;;;3.17;2.53;;;;;;;11.31;60.12;100256.84;5001138;28;20069;-65
2022/04/18 00:13:23;;;;;;;2.78;2.05;;;;;;;11.33;60.40;100255.16;5000613;28;20112;-65
2022/04/18 00:16:06;;;;;;;2.97;2.15;;;;;;;11.33;60.00;100255.16;5001303;28;20057;-65
2022/04/18 00:18:51;;;;;;;2.97;2.35;;;;;;;11.32;59.97;100241.31;5015736;28;20049;-64
2022/04/18 00:21:34;;;;;;;2.50;2.10;;;;;;;11.32;60.51;100245.63;5016042;28;20053;-65
2022/04/18 00:24:19;;;;;;;3.45;2.60;;;;;;;11.32;60.21;100240.44;5001205;28;20119;-65
2022/04/18 00:27:04;;;;;;;5.65;2.45;;;;;;;11.30;60.58;100243.00;5015981;28;20040;-65
2022/04/18 00:29:49;;;;;;;2.75;2.42;;;;;;;11.28;60.31;100242.09;5015097;28;20072;-65
2022/04/18 00:32:34;;;;;;;2.67;2.47;;;;;;;11.26;60.38;100246.38;5015434;28;20044;-65
2022/04/18 00:35:18;;;;;;;2.83;2.20;;;;;;;11.24;60.21;100238.59;5001003;28;20056;-65
2022/04/18 00:38:02;;;;;;;3.03;2.30;;;;;;;11.23;59.89;100244.63;5015127;28;20048;-64
2022/04/18 00:40:46;;;;;;;5.13;2.60;;;;;;;11.22;60.22;100237.69;5015560;28;20056;-65
2022/04/18 00:43:45;;;;;;;3.47;3.03;;;;;;;11.21;59.87;100237.69;5000328;28;20053;-65
2022/04/18 00:46:29;;;;;;;4.25;2.40;;;;;;;11.21;60.22;100241.13;5015100;28;20045;-64
2022/04/18 00:49:14;;;;;;;2.80;2.50;;;;;;;11.20;60.07;100230.75;5015273;28;20170;-65
2022/04/18 00:51:58;;;;;;;4.45;2.60;;;;;;;11.20;60.29;100234.19;5015301;28;20076;-65
2022/04/18 00:54:44;;;;;;;3.22;2.45;;;;;;;11.20;60.06;100228.16;5014827;28;20068;-65
2022/04/18 00:57:28;;;;;;;3.05;2.17;;;;;;;11.18;60.31;100228.09;5015419;28;20121;-65
2022/04/18 01:00:13;;;;;;;3.40;2.40;;;;;;;11.18;60.34;100229.84;5014586;28;20244;-65
2022/04/18 01:02:57;;;;;;;;;;;;;;;11.15;60.20;100225.47;5015022;28;20468;-65
2022/04/18 01:05:41;;;;;;;4.03;2.72;;;;;;;11.15;60.26;100224.59;5014782;28;19923;-65
2022/04/18 01:08:27;;;;;;;;;;;;;;;11.15;60.64;100229.78;5015327;28;20567;-65
2022/04/18 01:11:11;;;;;;;2.80;2.08;;;;;;;11.14;60.58;100228.91;5015213;28;20384;-65
2022/04/18 01:14:00;;;;;;;6.35;3.00;;;;;;;11.14;60.40;100228.91;5014848;28;20132;-65
2022/04/18 01:16:44;;;;;;;2.97;2.50;;;;;;;11.17;60.64;100222.91;5015016;28;20057;-64
2022/04/18 01:19:29;;;;;;;3.17;2.53;;;;;;;11.17;60.57;100228.94;5014442;28;20520;-65
2022/04/18 01:22:13;;;;;;;7.50;2.20;;;;;;;11.17;60.30;100223.75;5014675;28;20147;-65
2022/04/18 01:31:04;;;;;;;3.17;1.92;;;;;;;11.18;60.25;100228.09;5014515;28;20122;-65
2022/04/18 01:33:48;;;;;;;3.88;3.00;;;;;;;11.17;60.41;100226.34;4999762;28;20137;-65
2022/04/18 01:36:32;;;;;;;2.30;1.73;;;;;;;11.18;60.70;100224.66;5014495;28;20048;-65
2022/04/18 01:39:16;;;;;;;2.97;2.38;;;;;;;11.19;60.44;100226.41;5014095;28;20437;-65
2022/04/18 01:42:00;;;;;;;3.83;2.65;;;;;;;11.18;60.45;100224.66;5014174;28;20052;-65
2022/04/18 01:44:44;;;;;;;2.47;2.13;;;;;;;11.16;60.72;100227.19;5014298;28;20452;-65
2022/04/18 01:47:28;;;;;;;4.60;2.72;;;;;;;11.16;60.30;100229.78;4999815;28;20440;-65
2022/04/18 01:50:12;;;;;;;3.33;2.55;;;;;;;11.16;60.41;100229.78;5013845;28;20117;-65
2022/04/18 01:52:55;;;;;;;2.50;2.25;;;;;;;11.16;60.80;100221.16;5014418;28;20092;-65
2022/04/18 01:55:39;;;;;;;4.43;2.47;;;;;;;11.16;60.81;100221.16;5013902;28;20064;-66
2022/04/18 01:58:23;;;;;;;2.35;2.15;;;;;;;11.16;60.51;100215.97;5014062;28;20048;-65
2022/04/18 02:01:07;;;;;;;3.70;2.28;;;;;;;11.14;60.27;100218.50;4999254;28;20049;-65
2022/04/18 02:03:51;;;;;;;3.63;2.60;;;;;;;11.14;60.25;100212.47;5013848;28;20045;-66
2022/04/18 02:06:35;;;;;;;4.18;2.45;;;;;;;11.12;60.52;100207.28;5013240;28;20056;-66
2022/04/18 02:09:19;;;;;;;3.47;2.28;;;;;;;11.12;60.40;100210.72;5013675;28;20413;-65
2022/04/18 02:12:05;;;;;;;3.40;2.50;;;;;;;11.13;60.27;100206.44;5013790;28;20049;-65
2022/04/18 02:14:49;;;;;;;2.55;2.13;;;;;;;11.12;60.35;100212.47;4999220;28;20072;-65
2022/04/18 02:17:33;;;;;;;2.58;2.33;;;;;;;11.11;60.18;100208.13;4999442;28;20049;-65
2022/04/18 02:20:17;;;;;;;3.03;2.65;;;;;;;11.11;60.62;100210.72;5013652;28;20577;-66
2022/04/18 02:23:01;;;;;;;5.00;2.58;;;;;;;11.10;60.71;100211.56;4998711;28;20125;-65
2022/04/18 02:25:44;;;;;;;5.53;3.00;;;;;;;11.09;60.58;100208.06;5013919;28;20544;-65
2022/04/18 02:28:28;;;;;;;5.65;2.67;;;;;;;11.09;60.29;100205.47;5013271;28;20099;-65
2022/04/18 02:31:12;;;;;;;5.07;2.45;;;;;;;11.08;60.30;100195.94;5013232;28;20092;-65
2022/04/18 02:33:56;;;;;;;4.28;2.28;;;;;;;11.08;60.33;100205.47;5013640;28;20108;-66
2022/04/18 02:36:40;;;;;;;3.78;2.80;;;;;;;11.06;60.25;100200.22;5015381;28;20131;-65
2022/04/18 02:39:24;;;;;;;4.47;2.67;;;;;;;11.06;60.51;100199.38;5017523;28;20057;-65
2022/04/18 02:42:08;;;;;;;2.60;2.22;;;;;;;11.05;60.82;100197.63;5017310;28;20593;-65
2022/04/18 02:44:52;;;;;;;3.35;2.60;;;;;;;11.05;60.64;100200.22;5003187;28;20137;-65
2022/04/18 02:47:36;;;;;;;;;;;;;;;11.03;60.36;100197.63;5017809;28;20053;-65
2022/04/18 02:50:20;;;;;;;4.25;2.47;;;;;;;11.02;60.43;100193.28;5017576;28;19971;-66
2022/04/18 02:53:08;;;;;;;2.63;2.00;;;;;;;11.02;60.71;100194.97;5017406;28;20096;-65
2022/04/18 02:55:52;;;;;;;3.03;2.47;;;;;;;11.03;60.53;100186.34;5017273;28;20088;-65
2022/04/18 02:58:35;;;;;;;2.95;2.45;;;;;;;11.02;60.83;100198.47;5016887;28;20161;-65
2022/04/18 03:01:19;;;;;;;3.80;2.50;;;;;;;11.01;60.68;100191.53;5017091;28;20045;-66
2022/04/18 03:04:04;;;;;;;2.67;2.40;;;;;;;11.01;60.78;100188.94;5017524;28;20049;-65
2022/04/18 03:06:48;;;;;;;2.42;2.22;;;;;;;11.01;60.90;100185.44;5017155;28;20122;-65
2022/04/18 03:09:32;;;;;;;3.13;2.63;;;;;;;11.01;60.84;100185.44;5002282;28;20045;-65
2022/04/18 03:12:16;;;;;;;;;;;;;;;11.00;60.46;100188.88;5016842;28;20052;-65
2022/04/18 03:15:01;;;;;;;4.45;3.63;;;;;;;10.99;60.89;100184.53;5017016;28;19968;-65
2022/04/18 03:17:45;;;;;;;;;;;;;;;10.97;60.50;100179.34;5017601;28;20448;-65
2022/04/18 03:20:29;;;;;;;3.00;2.70;;;;;;;10.95;60.98;100176.75;5002302;28;19959;-65
2022/04/18 03:23:13;;;;;;;3.67;2.22;;;;;;;10.96;60.83;100177.59;5017270;28;20136;-65
2022/04/18 03:25:57;;;;;;;3.45;2.38;;;;;;;10.95;60.92;100178.44;5016395;28;20057;-65
2022/04/18 03:28:41;;;;;;;;;;;;;;;10.95;60.89;100178.44;5017034;28;20566;-66
2022/04/18 03:31:25;;;;;;;3.10;2.80;;;;;;;10.95;60.53;100181.03;5016845;28;19963;-65
2022/04/18 03:34:09;;;;;;;2.90;2.58;;;;;;;10.94;60.66;100176.69;5016738;28;20137;-65
2022/04/18 03:39:56;;;;;;;3.25;2.72;;;;;;;10.90;61.04;100177.53;5016195;28;19968;-65
2022/04/18 03:42:41;;;;;;;;;;;;;;;10.89;60.64;100166.25;5017243;28;20096;-65
2022/04/18 03:45:24;;;;;;;2.88;2.63;;;;;;;10.87;61.16;100173.13;5016552;28;19933;-65
2022/04/18 03:48:08;;;;;;;3.35;3.05;;;;;;;10.87;60.79;100172.28;5015085;28;20169;-65
2022/04/18 03:50:52;;;;;;;3.10;2.53;;;;;;;10.87;60.79;100172.28;5001308;28;20040;-65
2022/04/18 03:53:36;;;;;;;4.13;2.78;;;;;;;10.86;60.66;100166.19;5016274;28;20474;-66
2022/04/18 03:56:20;;;;;;;6.25;3.20;;;;;;;10.85;60.62;100161.84;5001824;28;20099;-65
2022/04/18 03:59:04;;;;;;;4.00;3.42;;;;;;;10.85;60.76;100161.84;5016014;28;20061;-65
2022/04/18 04:01:48;;;;;;;4.50;3.00;;;;;;;10.83;60.54;100158.38;5001716;28;20429;-65
2022/04/18 04:04:32;;;;;;;;;;;;;;;10.82;60.63;100162.69;5016532;28;20562;-65
2022/04/18 04:07:17;;;;;;;3.22;2.80;;;;;;;10.82;60.78;100169.59;5001503;28;20059;-65
2022/04/18 04:10:00;;;;;;;;;;;;;;;10.80;60.91;100171.31;5015876;28;20111;-65
2022/04/18 04:12:44;;;;;;;3.30;3.00;;;;;;;10.79;61.00;100167.81;5015774;28;19924;-65
2022/04/18 04:15:28;;;;;;;3.47;2.95;;;;;;;10.80;60.66;100168.72;5015567;28;20061;-65
2022/04/18 04:18:12;;;;;;;4.32;2.95;;;;;;;10.78;60.71;100170.41;5001256;28;20120;-66
2022/04/18 04:20:57;;;;;;;3.70;3.30;;;;;;;10.79;61.02;100165.22;5016146;28;20084;-66
2022/04/18 04:23:41;;;;;;;4.15;3.60;;;;;;;10.81;60.81;100165.28;5000833;28;20049;-65
2022/04/18 04:26:25;;;;;;;4.45;3.53;;;;;;;10.80;60.82;100161.78;5016006;28;20551;-65
2022/04/18 04:29:09;;;;;;;5.10;3.30;;;;;;;10.79;60.92;100160.03;5016042;28;20496;-65
2022/04/18 04:31:53;;;;;;;5.18;3.20;;;;;;;10.79;60.56;100160.03;5001035;28;20053;-65
2022/04/18 04:34:37;;;;;;;5.53;3.83;;;;;;;10.80;61.07;100168.72;5015554;28;20532;-65
2022/04/18 04:37:21;;;;;;;3.53;3.20;;;;;;;10.78;60.66;100157.44;5015660;28;20088;-65
2022/04/18 04:40:06;;;;;;;4.20;3.15;;;;;;;10.79;60.73;100164.38;5000873;28;20111;-65
2022/04/18 04:42:49;;;;;;;3.80;2.80;;;;;;;10.79;60.81;100172.16;5000756;28;20049;-65
2022/04/18 04:45:33;;;;;;;3.22;2.90;;;;;;;10.77;61.19;100171.25;5015336;28;20112;-66
2022/04/18 04:48:18;;;;;;;4.30;3.22;;;;;;;10.77;60.82;100172.09;5015004;28;20180;-65
2022/04/18 04:51:01;;;;;;;5.40;3.17;;;;;;;10.78;61.11;100175.59;5015506;28;20623;-66
2022/04/18 04:53:45;;;;;;;4.55;3.60;;;;;;;10.77;61.12;100179.03;5015182;28;20092;-66
2022/04/18 04:56:29;;;;;;;3.75;2.95;;;;;;;10.76;60.85;100180.72;5015242;28;20137;-65
2022/04/18 04:59:13;;;;;;;4.63;3.60;;;;;;;10.75;60.85;100178.13;5013888;28;20531;-65
2022/04/18 05:01:57;;;;;;;4.80;3.17;;;;;;;10.74;61.23;100177.25;5014769;28;20520;-65
2022/04/18 05:04:41;;;;;;;5.10;3.88;;;;;;;10.74;61.10;100181.56;5015108;28;20129;-66
2022/04/18 05:07:25;;;;;;;6.03;3.33;;;;;;;10.73;61.36;100179.81;5014043;28;20095;-65
2022/04/18 05:10:09;;;;;;;6.28;3.40;;;;;;;10.72;61.02;100181.53;5014818;28;20160;-65
2022/04/18 05:12:53;;;;;;;;;;;;;;;10.71;60.85;100182.38;5014618;28;20080;-65
2022/04/18 05:15:37;;;;;;;3.47;3.03;;;;;;;10.70;61.27;100193.59;5014686;28;19983;-65
2022/04/18 05:18:22;;;;;;;6.65;3.90;;;;;;;10.71;61.30;100202.22;4999631;28;20069;-65
2022/04/18 05:21:06;;;;;;;4.15;3.00;;;;;;;10.69;61.30;100191.84;5014371;28;20578;-65
2022/04/18 05:23:50;;;;;;;4.25;2.97;;;;;;;10.69;60.93;100196.13;5014713;28;20061;-65
2022/04/18 05:26:34;;;;;;;3.50;3.05;;;;;;;10.66;61.26;100192.69;4999579;28;20552;-66
2022/04/18 05:29:17;;;;;;;4.90;3.22;;;;;;;10.65;61.15;100193.53;5014381;28;20080;-66
2022/04/18 05:32:01;;;;;;;5.10;3.30;;;;;;;10.65;60.83;100184.84;5014580;28;20524;-65
2022/04/18 05:34:45;;;;;;;4.53;3.60;;;;;;;10.64;60.73;100196.94;5014777;28;20048;-65
2022/04/18 05:37:29;;;;;;;7.60;4.60;;;;;;;10.64;60.96;100188.28;5014444;28;20080;-65
2022/04/18 05:40:13;;;;;;;6.20;3.72;;;;;;;10.62;60.83;100188.28;5014741;28;20049;-66
2022/04/18 05:43:00;;;;;;;7.10;4.60;;;;;;;10.63;61.21;100184.84;4999339;28;20116;-65
2022/04/18 05:45:44;;;;;;;6.13;4.35;;;;;;;10.63;61.13;100179.66;5014533;28;20044;-65
2022/04/18 05:48:28;;;;;;;5.03;3.85;;;;;;;10.63;60.83;100181.34;5014121;28;20516;-65
2022/04/18 05:51:12;;;;;;;5.93;4.07;;;;;;;10.62;60.77;100183.09;5013842;28;20052;-65
2022/04/18 05:53:56;;;;;;;5.47;4.40;;;;;;;10.61;60.82;100186.53;5013921;28;20080;-65
2022/04/18 05:56:40;;;;;;;7.03;4.13;;;;;;;10.60;60.88;100192.56;5014058;28;20053;-65
2022/04/18 05:59:24;;;;;;;5.70;4.63;;;;;;;10.60;61.08;100208.09;4999539;28;20060;-65
2022/04/18 06:02:08;;;;;;;8.55;4.97;;;;;;;10.61;60.90;100206.38;5013628;28;20128;-66
2022/04/18 06:04:53;;;;;;;4.90;4.25;;;;;;;10.60;60.78;100207.22;5014088;28;20061;-65
2022/04/18 06:07:38;;;;;;;5.05;4.45;;;;;;;10.62;60.79;100209.00;5013875;28;20056;-64
2022/04/18 06:10:22;;;;;;;6.28;3.65;;;;;;;10.60;60.82;100218.47;5013351;28;20045;-65
2022/04/18 06:13:09;;;;;;;6.63;3.83;;;;;;;10.61;60.89;100206.38;5013978;28;20424;-65
2022/04/18 06:15:53;;;;;;;5.75;3.92;;;;;;;10.61;60.99;100209.84;4999217;28;20468;-65
2022/04/18 06:18:37;;;;;;;4.93;4.10;;;;;;;10.61;61.31;100209.84;4998705;28;20052;-65
2022/04/18 06:21:21;;;;;;;5.60;4.25;;;;;;;10.61;61.42;100219.31;5014035;28;20057;-64
2022/04/18 06:24:05;;;;;;;8.35;3.95;;;;;;;10.60;60.99;100223.66;5013848;28;20053;-65
2022/04/18 06:26:49;;;;;;;4.90;3.45;;;;;;;10.61;61.13;100222.81;4999079;28;20417;-65
2022/04/18 06:29:33;;;;;;;5.55;4.00;;;;;;;10.60;61.30;100225.34;4998772;28;20053;-65
2022/04/18 06:32:17;;;;;;;5.75;3.45;;;;;;;10.60;61.10;100220.16;4998935;28;20088;-64
2022/04/18 06:35:00;;;;;;;5.03;3.83;;;;;;;10.58;61.27;100217.56;5013342;28;20092;-64
2022/04/18 06:37:44;;;;;;;6.05;4.15;;;;;;;10.58;60.78;100225.34;5013976;28;20080;-65
2022/04/18 06:40:28;;;;;;;7.00;3.90;;;;;;;10.57;61.01;100228.78;5013509;28;20512;-64
2022/04/18 06:43:15;;;;;;;7.07;3.85;;;;;;;10.60;61.10;100230.53;5013398;28;20088;-65
2022/04/18 06:46:00;;;;;;;5.10;3.70;;;;;;;10.59;60.94;100226.22;4998568;28;20049;-65
2022/04/18 06:48:44;;;;;;;7.10;3.83;;;;;;;10.59;60.85;100227.09;4998805;28;20405;-64
2022/04/18 06:51:28;;;;;;;5.07;3.60;;;;;;;10.58;60.90;100222.75;5013544;28;20130;-66
2022/04/18 06:54:12;;;;;;;7.63;3.65;;;;;;;10.59;61.34;100224.50;5013267;28;20053;-65
2022/04/18 06:56:58;;;;;;;5.30;3.90;;;;;;;10.57;60.67;100215.81;5013561;28;20057;-65
2022/04/18 06:59:43;;;;;;;4.38;3.75;;;;;;;10.58;60.71;100217.56;4998746;28;20049;-65
2022/04/18 07:02:27;;;;;;;;;;;;;;;10.55;60.63;100222.69;4998966;28;20073;-65
2022/04/18 07:05:11;;;;;;;6.38;3.92;;;;;;;10.55;60.89;100211.47;4998710;28;20036;-65
2022/04/18 07:07:55;;;;;;;;;;;;;;;10.52;60.51;100212.25;5012736;28;20111;-65
2022/04/18 07:10:39;;;;;;;4.57;3.70;;;;;;;10.51;60.52;100213.09;5012975;28;20020;-65
2022/04/18 07:13:23;;;;;;;5.25;4.03;;;;;;;10.52;60.76;100214.84;5013320;28;20104;-65
2022/04/18 07:16:07;;;;;;;4.50;3.88;;;;;;;10.53;60.85;100213.13;5013003;28;20583;-65
2022/04/18 07:18:51;;;;;;;4.72;3.55;;;;;;;10.50;60.34;100217.41;5013256;28;20420;-65
2022/04/18 07:21:35;;;;;;;4.88;3.58;;;;;;;10.53;60.78;100220.91;5013059;28;20109;-65
2022/04/18 07:24:19;;;;;;;5.07;3.60;;;;;;;10.51;60.43;100226.94;5002362;28;20048;-66
2022/04/18 07:27:03;;;;;;;4.05;3.22;;;;;;;10.51;60.14;100224.34;5001908;28;20041;-66
2022/04/18 07:29:48;;;;;;;;;;;;;;;10.51;60.23;100226.03;5016743;28;20053;-66
2022/04/18 07:32:38;;;;;;;5.60;3.45;;;;;;;10.49;60.21;100220.84;5015745;28;19925;-65
2022/04/18 07:35:22;;;;;;;5.70;3.35;;;;;;;10.52;60.60;100214.84;5002048;28;20569;-65
2022/04/18 07:41:08;;;;;;;5.30;3.60;;;;;;;10.56;60.78;100203.69;5016537;28;20441;-65
2022/04/18 07:43:53;;;;;;;4.80;3.40;;;;;;;10.57;60.58;100214.94;5016074;28;20092;-65
2022/04/18 07:46:38;;;;;;;5.47;3.42;;;;;;;10.57;60.46;100213.22;5001935;28;20107;-65
2022/04/18 07:49:21;;;;;;;5.95;3.60;;;;;;;10.57;60.73;100223.59;5016615;28;20088;-65
2022/04/18 07:52:07;;;;;;;6.53;3.30;;;;;;;10.57;60.39;100218.41;5016350;28;20040;-65
2022/04/18 07:54:51;;;;;;;4.00;3.13;;;;;;;10.57;60.48;100208.03;5015552;28;20104;-65
2022/04/18 07:57:37;;;;;;;5.40;3.65;;;;;;;10.58;60.60;100209.78;5001032;28;20048;-66
2022/04/18 08:00:21;;;;;;;4.78;3.45;;;;;;;10.57;60.59;100209.78;5001481;28;20401;-65
2022/04/18 08:03:05;;;;;;;4.22;3.75;;;;;;;10.58;60.50;100207.19;5015714;28;20061;-65
2022/04/18 08:05:49;;;;;;;;;;;;;;;10.58;60.43;100211.53;5016839;28;20120;-65
2022/04/18 08:08:34;;;;;;;3.50;2.65;;;;;;;10.57;60.59;100197.66;5016167;28;19952;-65
2022/04/18 08:11:18;;;;;;;;;;;;;;;10.59;60.49;100202.91;5016708;28;20528;-65
2022/04/18 08:14:02;;;;;;;6.50;3.33;;;;;;;10.57;60.77;100202.84;5015762;28;19961;-65
2022/04/18 08:16:46;;;;;;;;;;;;;;;10.57;60.43;100202.84;5016350;28;20044;-66
2022/04/18 08:19:30;;;;;;;4.60;3.72;;;;;;;10.60;60.68;100194.25;5001353;28;19920;-65
2022/04/18 08:22:14;;;;;;;5.72;3.95;;;;;;;10.59;60.49;100198.56;5000635;28;20045;-66
2022/04/18 08:24:58;;;;;;;4.28;3.20;;;;;;;10.59;60.52;100190.81;5015993;28;20057;-65
2022/04/18 08:27:43;;;;;;;4.07;3.42;;;;;;;10.61;60.60;100194.31;5016050;28;20056;-66
2022/04/18 08:30:27;;;;;;;3.67;3.22;;;;;;;10.62;60.34;100193.47;5015579;28;20421;-65
2022/04/18 08:33:11;;;;;;;;;;;;;;;10.62;60.75;100187.38;5015900;28;20049;-65
2022/04/18 08:35:58;;;;;;;6.18;3.38;;;;;;;10.62;60.53;100182.19;5000264;28;19964;-65
2022/04/18 08:38:43;;;;;;;4.15;2.95;;;;;;;10.64;60.83;100186.59;5015147;28;20103;-65
2022/04/18 08:41:37;;;;;;;4.15;3.05;;;;;;;10.68;60.78;100182.31;5001312;28;20056;-66
2022/04/18 08:44:21;;;;;;;4.05;3.28;;;;;;;10.69;60.36;100186.66;5000898;28;20543;-65
2022/04/18 08:47:05;;;;;;;4.38;3.38;;;;;;;10.70;60.51;100191.00;5015272;28;20053;-64
2022/04/18 08:52:52;;;;;;;4.53;3.58;;;;;;;10.74;60.50;100184.16;5015020;28;20088;-65
2022/04/18 08:55:37;;;;;;;6.03;3.78;;;;;;;10.75;60.52;100178.13;4999912;28;20152;-65
2022/04/18 08:58:26;;;;;;;3.95;3.28;;;;;;;10.77;60.56;100174.69;5000409;28;20049;-65
2022/04/18 09:01:11;;;;;;;5.18;3.55;;;;;;;10.78;60.69;100176.44;5015205;28;20040;-65
2022/04/18 09:03:55;;;;;;;3.85;3.40;;;;;;;10.78;60.59;100176.44;4999752;28;20053;-66
2022/04/18 09:06:39;;;;;;;4.50;3.33;;;;;;;10.82;60.53;100178.25;5000434;28;20084;-65
2022/04/18 09:09:28;;;;;;;5.88;4.07;;;;;;;10.83;60.27;100176.50;5015037;28;20120;-64
2022/04/18 09:12:20;;;;;;;4.20;3.10;;;;;;;10.85;60.48;100184.34;5000319;28;20528;-64
2022/04/18 09:15:06;;;;;;;5.10;3.55;;;;;;;10.86;60.41;100176.56;5000132;28;20056;-66
2022/04/18 09:17:50;;;;;;;3.75;3.13;;;;;;;10.86;60.09;100175.72;5014815;28;20397;-65
2022/04/18 09:20:42;;;;;;;3.85;2.88;;;;;;;10.88;60.52;100180.06;5013611;28;20049;-65
2022/04/18 09:23:34;;;;;;;4.22;3.40;;;;;;;10.90;60.39;100183.56;4999789;28;20103;-65
2022/04/18 09:26:18;;;;;;;6.18;3.63;;;;;;;10.92;60.09;100175.78;5014276;28;20103;-66
2022/04/18 09:29:06;;;;;;;7.85;3.67;;;;;;;10.93;60.52;100178.44;5000067;28;20049;-66
2022/04/18 09:31:52;;;;;;;4.95;3.28;;;;;;;10.94;60.36;100175.00;4999923;28;20429;-66
2022/04/18 09:34:40;;;;;;;4.35;3.70;;;;;;;10.95;60.20;100174.16;4999330;28;20068;-66
2022/04/18 09:37:29;;;;;;;5.00;3.53;;;;;;;10.98;60.56;100173.31;4999449;28;20049;-66
2022/04/18 09:40:21;;;;;;;4.70;3.40;;;;;;;10.98;60.79;100169.88;4999765;28;20579;-67
2022/04/18 09:43:05;;;;;;;4.97;3.67;;;;;;;11.00;60.32;100170.72;4999832;28;20406;-66
2022/04/18 09:45:49;;;;;;;8.23;3.33;;;;;;;11.03;60.24;100168.19;5013264;28;20081;-67
2022/04/18 09:48:35;;;;;;;7.03;4.38;;;;;;;11.01;60.34;100160.41;4999052;28;20073;-65
2022/04/18 09:51:25;;;;;;;5.03;3.65;;;;;;;11.04;60.54;100157.88;4999242;28;20129;-65
2022/04/18 09:54:10;;;;;;;4.95;4.07;;;;;;;11.05;60.52;100153.53;4999427;28;20061;-65
2022/04/18 09:56:56;;;;;;;4.47;3.55;;;;;;;11.06;60.28;100150.09;5014024;28;20108;-65
2022/04/18 09:59:41;;;;;;;5.00;3.92;;;;;;;11.07;60.62;100144.06;5013904;28;20103;-65
2022/04/18 10:02:27;;;;;;;4.13;3.50;;;;;;;11.08;60.53;100144.06;5013805;28;20482;-66
2022/04/18 10:05:11;;;;;;;4.28;3.53;;;;;;;11.09;60.36;100139.78;5013657;28;20124;-65
2022/04/18 10:07:56;;;;;;;4.85;3.63;;;;;;;11.11;60.37;100135.50;5013891;28;20520;-65
2022/04/18 10:10:40;;;;;;;4.68;3.65;;;;;;;11.11;60.43;100140.69;4998960;28;20131;-65
2022/04/18 10:13:26;;;;;;;3.92;3.35;;;;;;;11.12;60.49;100137.25;4998784;28;20048;-65
2022/04/18 10:16:21;;;;;;;4.82;3.58;;;;;;;11.14;60.32;100132.06;4999336;28;20539;-63
2022/04/18 10:19:19;;;;;;;4.65;3.80;;;;;;;11.15;60.67;100129.47;4998593;28;20068;-66
2022/04/18 10:22:28;;;;;;;5.88;3.95;;;;;;;11.16;60.53;100127.78;4999086;28;20088;-65
2022/04/18 10:25:33;;;;;;;6.50;4.63;;;;;;;11.15;60.43;100126.88;5013627;28;20048;-66
2022/04/18 10:28:25;;;;;;;8.50;7.60;;;;;;;11.16;60.45;100123.44;5013850;28;20076;-66
2022/04/18 10:31:18;;;;;;;7.80;6.32;;;;;;;11.15;60.36;100132.06;4998929;28;20045;-64
2022/04/18 10:34:03;;;;;;;9.48;6.85;;;;;;;11.17;60.47;100125.19;5013291;28;20062;-65
2022/04/18 10:36:52;;;;;;;10.27;7.28;;;;;;;11.18;60.37;100120.88;4998997;28;20077;-65
2022/04/18 10:39:38;;;;;;;8.88;7.15;;;;;;;11.19;60.60;100115.72;5013688;28;20056;-65
2022/04/18 10:42:31;;;;;;;10.88;7.05;;;;;;;11.20;60.10;100112.28;4998559;28;20096;-65
2022/04/18 10:45:20;;;;;;;9.13;6.95;;;;;;;11.21;60.28;100107.97;5013496;28;20057;-64
2022/04/18 10:48:05;;;;;;;8.80;6.85;;;;;;;11.22;60.21;100099.31;4998775;28;20406;-66
2022/04/18 10:50:50;;;;;;;9.18;6.57;;;;;;;11.24;60.41;100100.19;5012206;28;20160;-66
2022/04/18 10:53:35;;;;;;;12.15;6.82;;;;;;;11.26;60.59;100106.28;5013237;28;20472;-65
2022/04/18 10:56:21;;;;;;;6.57;5.85;;;;;;;11.26;60.92;100103.69;5013186;28;20065;-66
2022/04/18 10:59:06;;;;;;;9.82;6.85;;;;;;;11.27;60.46;100095.94;5002486;28;20528;-64
2022/04/18 11:01:51;;;;;;;7.65;6.05;;;;;;;11.27;60.49;100082.97;5002227;28;20564;-66
2022/04/18 11:04:38;;;;;;;7.03;6.00;;;;;;;11.27;60.55;100087.28;5002444;28;20049;-65
2022/04/18 11:07:37;;;;;;;6.85;6.05;;;;;;;11.27;60.59;100088.16;5016998;28;20065;-65
2022/04/18 11:10:23;;;;;;;6.97;5.95;;;;;;;11.30;60.79;100083.84;5002301;28;20393;-66
2022/04/18 11:13:12;;;;;;;7.90;6.20;;;;;;;11.31;60.79;100088.19;5017044;28;20068;-66
2022/04/18 11:16:22;;;;;;;8.68;6.70;;;;;;;11.31;60.59;100081.28;5001973;28;20099;-67
2022/04/18 11:19:16;;;;;;;6.50;5.50;;;;;;;11.30;60.60;100078.66;5006502;28;20092;-66
2022/04/18 11:22:01;;;;;;;8.27;5.35;;;;;;;11.32;60.68;100075.25;5017217;28;20049;-66
2022/04/18 11:24:48;;;;;;;;;;;;;;;11.31;60.44;100072.63;5002721;28;20560;-65
2022/04/18 11:27:36;;;;;;;8.15;5.95;;;;;;;11.29;60.52;100070.03;5015873;28;20017;-66
2022/04/18 11:30:20;;;;;;;8.48;6.53;;;;;;;11.33;61.02;100065.72;5001862;28;20172;-66
2022/04/18 11:33:05;;;;;;;6.28;5.68;;;;;;;11.33;60.96;100066.63;5016812;28;20056;-66
2022/04/18 11:35:49;;;;;;;9.50;5.90;;;;;;;11.32;60.73;100064.88;5001776;28;20053;-66
2022/04/18 11:38:32;;;;;;;8.85;5.45;;;;;;;11.34;60.56;100057.09;5016526;28;20158;-65
2022/04/18 11:41:18;;;;;;;5.28;4.68;;;;;;;11.35;60.33;100059.72;5002259;28;20077;-66
2022/04/18 11:44:02;;;;;;;7.78;5.93;;;;;;;11.35;60.38;100051.94;5016502;28;20468;-65
2022/04/18 11:46:47;;;;;;;6.30;4.88;;;;;;;11.36;60.54;100051.09;5016751;28;20056;-66
2022/04/18 11:49:31;;;;;;;7.93;5.05;;;;;;;11.37;60.81;100055.41;5016036;28;20053;-66
2022/04/18 11:52:26;;;;;;;6.40;4.85;;;;;;;11.37;60.99;100047.63;5016131;28;20052;-66
2022/04/18 11:55:13;;;;;;;10.43;5.70;;;;;;;11.39;60.68;100052.84;5001304;28;20091;-65
2022/04/18 11:57:58;;;;;;;6.38;5.75;;;;;;;11.39;60.57;100047.66;5001195;28;20052;-65
2022/04/18 12:06:52;;;;;;;5.93;5.20;;;;;;;11.40;60.70;100041.63;5015908;28;20164;-66
2022/04/18 12:09:36;;;;;;;6.20;4.82;;;;;;;11.39;60.70;100043.31;5000425;28;20493;-65
2022/04/18 12:12:31;;;;;;;7.05;5.45;;;;;;;11.41;61.07;100039.03;5015533;28;20104;-65
2022/04/18 12:15:15;;;;;;;8.25;5.07;;;;;;;11.41;60.69;100031.25;5001488;28;20052;-65
2022/04/18 12:18:11;;;;;;;6.85;4.22;;;;;;;11.43;60.89;100033.88;5015802;28;20064;-65
2022/04/18 12:20:55;;;;;;;7.03;4.75;;;;;;;11.41;61.11;100033.84;5001211;28;20127;-65
2022/04/18 12:23:39;;;;;;;6.30;4.90;;;;;;;11.42;60.85;100035.59;5014810;28;20100;-66
2022/04/18 12:26:33;;;;;;;5.25;4.57;;;;;;;11.43;60.96;100029.53;5015940;28;20077;-65
2022/04/18 12:29:19;;;;;;;;;;;;;;;11.44;61.08;100025.25;5016553;28;20481;-65
2022/04/18 12:32:03;;;;;;;7.50;5.60;;;;;;;11.42;60.70;100017.44;5015780;28;19964;-65
2022/04/18 12:34:47;;;;;;;;;;;;;;;11.42;61.14;100016.56;5001112;28;20069;-65
2022/04/18 12:37:31;;;;;;;7.38;5.55;;;;;;;11.40;61.02;100011.34;5000975;28;20334;-66
2022/04/18 12:40:16;;;;;;;7.40;5.68;;;;;;;11.42;60.75;100006.19;5015837;28;20057;-66
2022/04/18 12:43:06;;;;;;;8.57;5.50;;;;;;;11.43;60.97;100007.94;5000936;28;20049;-65
2022/04/18 12:46:11;;;;;;;6.63;5.28;;;;;;;11.44;60.85;99996.69;5000289;28;20416;-65
2022/04/18 12:48:55;;;;;;;7.18;5.25;;;;;;;11.46;60.82;100001.91;5000469;28;20096;-65
2022/04/18 12:51:42;;;;;;;5.68;4.47;;;;;;;11.48;60.71;99990.66;5014899;28;20100;-65
2022/04/18 12:54:27;;;;;;;6.70;5.25;;;;;;;11.48;60.97;99998.47;5000145;28;20096;-65
2022/04/18 12:57:20;;;;;;;6.45;4.55;;;;;;;11.50;60.61;99988.97;5015245;28;20588;-65
2022/04/18 13:00:12;;;;;;;5.93;4.22;;;;;;;11.50;60.55;99983.78;5000528;28;20157;-66
2022/04/18 13:02:57;;;;;;;5.63;4.72;;;;;;;11.52;60.99;99986.41;5000198;28;20101;-66
2022/04/18 13:05:43;;;;;;;6.10;4.65;;;;;;;11.53;60.84;99978.63;5000335;28;20099;-66
2022/04/18 13:08:28;;;;;;;7.20;4.47;;;;;;;11.52;60.91;99982.06;5014627;28;20077;-65
2022/04/18 13:11:12;;;;;;;6.70;4.40;;;;;;;11.52;60.60;99973.44;4999586;28;20143;-65
2022/04/18 13:14:02;;;;;;;4.70;4.15;;;;;;;11.51;60.96;99964.75;5014702;28;20571;-66
2022/04/18 13:16:46;;;;;;;7.07;4.00;;;;;;;11.53;60.79;99970.84;5000131;28;20551;-66